| time (UTC) | temp F | wind direction | speed knots | gust knots | rain 1hr in | rain 24hr in | rain mn in | humidity % | barometer mb |
| 20260905222836 | 82 | 93 | 0.9 | 2.6 | 0.04 | 0.04 | 0.04 | 88 | 1012.7 |
| 20260905222021 | 82 | 53 | 0.9 | 1.7 | 0.04 | 0.04 | 0.04 | 89 | 1012.7 |
| 20260905221805 | 82 | 53 | 0.9 | 1.7 | 0.04 | 0.04 | 0.04 | 89 | 1012.7 |
| 20260905221041 | 82 | 36 | 1.7 | 4.3 | 0.04 | 0.04 | 0.04 | 90 | 1012.8 |
| 20260905220735 | 82 | 36 | 1.7 | 4.3 | 0.04 | 0.04 | 0.04 | 90 | 1012.8 |
| 20260905220456 | 82 | 29 | 1.7 | 4.3 | 0.04 | 0.04 | 0.04 | 87 | 1012.9 |
| 20260905220206 | 82 | 29 | 1.7 | 4.3 | 0.04 | 0.04 | 0.04 | 87 | 1012.9 |
| 20260905215135 | 85 | 17 | 2.6 | 7.0 | 0.02 | 0.02 | 0.02 | 78 | 1012.7 |
| 20260905214841 | 86 | 24 | 2.6 | 4.3 | 0.00 | 0.00 | 0.00 | 81 | 1012.8 |
| 20260905214605 | 86 | 24 | 2.6 | 4.3 | 0.00 | 0.00 | 0.00 | 81 | 1012.8 |
| 20260905214105 | 86 | 38 | 1.7 | 3.5 | 0.00 | 0.00 | 0.00 | 79 | 1012.9 |
| 20260905213759 | 86 | 39 | 1.7 | 3.5 | 0.00 | 0.00 | 0.00 | 80 | 1012.8 |
| 20260905213605 | 86 | 39 | 1.7 | 3.5 | 0.00 | 0.00 | 0.00 | 80 | 1012.8 |
| 20260905213405 | 86 | 20 | 2.6 | 5.2 | 0.00 | 0.00 | 0.00 | 80 | 1012.8 |
| 20260905213106 | 86 | 20 | 2.6 | 5.2 | 0.00 | 0.00 | 0.00 | 80 | 1012.8 |
| 20260905212823 | 85 | 23 | 1.7 | 5.2 | 0.00 | 0.00 | 0.00 | 80 | 1012.7 |
| 20260905212535 | 85 | 23 | 1.7 | 5.2 | 0.00 | 0.00 | 0.00 | 80 | 1012.7 |
| 20260905210935 | 85 | 280 | 1.7 | 6.1 | 0.00 | 0.00 | 0.00 | 80 | 1012.7 |
| 20260905210405 | 85 | 280 | 2.6 | 6.1 | 0.00 | 0.00 | 0.00 | 78 | 1012.5 |
| 20260905205905 | 85 | 274 | 3.5 | 7.8 | 0.00 | 0.00 | 0.00 | 75 | 1012.6 |
| 20260905204835 | 86 | 274 | 4.3 | 10.4 | 0.00 | 0.00 | 0.00 | 74 | 1012.7 |
| 20260905204305 | 88 | 274 | 4.3 | 10.4 | 0.00 | 0.00 | 0.00 | 76 | 1012.6 |
| 20260905203735 | 88 | 270 | 3.5 | 6.1 | 0.00 | 0.00 | 0.00 | 72 | 1012.6 |
| 20260905203538 | 89 | 271 | 4.3 | 11.3 | 0.00 | 0.00 | 0.00 | 72 | 1012.5 |
| 20260905203235 | 89 | 271 | 4.3 | 11.3 | 0.00 | 0.00 | 0.00 | 72 | 1012.5 |
| 20260905202705 | 90 | 272 | 3.5 | 11.3 | 0.00 | 0.00 | 0.00 | 70 | 1012.4 |
| 20260905202205 | 92 | 281 | 2.6 | 8.7 | 0.00 | 0.00 | 0.00 | 71 | 1012.3 |
| 20260905201635 | 93 | 305 | 1.7 | 5.2 | 0.00 | 0.00 | 0.00 | 70 | 1012.3 |
| 20260905201105 | 93 | 301 | 1.7 | 6.1 | 0.00 | 0.00 | 0.00 | 66 | 1012.4 |
| 20260905200605 | 94 | 290 | 1.7 | 6.1 | 0.00 | 0.00 | 0.00 | 64 | 1012.3 |
| 20260905200358 | 94 | 289 | 1.7 | 5.2 | 0.00 | 0.00 | 0.00 | 64 | 1012.4 |
| 20260905200105 | 94 | 289 | 1.7 | 5.2 | 0.00 | 0.00 | 0.00 | 64 | 1012.4 |
| 20260905195535 | 94 | 292 | 2.6 | 7.0 | 0.00 | 0.00 | 0.00 | 65 | 1012.5 |
| 20260905195005 | 94 | 288 | 2.6 | 7.0 | 0.00 | 0.00 | 0.00 | 65 | 1012.4 |
| 20260905194435 | 94 | 287 | 1.7 | 5.2 | 0.00 | 0.00 | 0.00 | 66 | 1012.5 |
| 20260905193935 | 93 | 284 | 1.7 | 7.0 | 0.00 | 0.00 | 0.00 | 68 | 1012.4 |
| 20260905193405 | 93 | 272 | 1.7 | 7.0 | 0.00 | 0.00 | 0.00 | 68 | 1012.6 |
| 20260905192835 | 93 | 263 | 2.6 | 8.7 | 0.00 | 0.00 | 0.00 | 68 | 1012.7 |
| 20260905192549 | 92 | 262 | 3.5 | 8.7 | 0.00 | 0.00 | 0.00 | 68 | 1012.7 |
| 20260905192306 | 92 | 262 | 3.5 | 8.7 | 0.00 | 0.00 | 0.00 | 68 | 1012.7 |
| 20260905191646 | 93 | 298 | 1.7 | 6.1 | 0.00 | 0.00 | 0.00 | 67 | 1012.9 |
| 20260905191235 | 93 | 298 | 1.7 | 6.1 | 0.00 | 0.00 | 0.00 | 67 | 1012.9 |
| 20260905191140 | 94 | 303 | 1.7 | 6.1 | 0.00 | 0.00 | 0.00 | 67 | 1012.9 |
| 20260905190735 | 94 | 303 | 1.7 | 6.1 | 0.00 | 0.00 | 0.00 | 67 | 1012.9 |
| 20260905190624 | 94 | 302 | 1.7 | 5.2 | 0.00 | 0.00 | 0.00 | 68 | 1012.9 |
| 20260905190205 | 94 | 302 | 1.7 | 5.2 | 0.00 | 0.00 | 0.00 | 68 | 1012.9 |
| 20260905185705 | 94 | 306 | 1.7 | 5.2 | 0.00 | 0.00 | 0.00 | 68 | 1013.0 |
| 20260905185135 | 93 | 302 | 1.7 | 3.5 | 0.00 | 0.00 | 0.00 | 69 | 1013.1 |
| 20260905184635 | 93 | 299 | 2.6 | 7.8 | 0.00 | 0.00 | 0.00 | 66 | 1013.1 |
| 20260905184105 | 93 | 288 | 2.6 | 7.8 | 0.00 | 0.00 | 0.00 | 70 | 1013.0 |
| 20260905183535 | 92 | 287 | 2.6 | 5.2 | 0.00 | 0.00 | 0.00 | 73 | 1013.2 |
| 20260905182505 | 90 | 311 | 1.7 | 3.5 | 0.00 | 0.00 | 0.00 | 75 | 1013.1 |
| 20260905182005 | 90 | 287 | 2.6 | 7.0 | 0.00 | 0.00 | 0.00 | 72 | 1013.2 |
| 20260905181505 | 91 | 265 | 2.6 | 7.0 | 0.00 | 0.00 | 0.00 | 72 | 1013.3 |
| 20260905180935 | 93 | 253 | 2.6 | 6.1 | 0.00 | 0.00 | 0.00 | 68 | 1013.3 |
| 20260905180435 | 92 | 259 | 2.6 | 5.2 | 0.00 | 0.00 | 0.00 | 70 | 1013.3 |
| 20260905180212 | 92 | 253 | 2.6 | 5.2 | 0.00 | 0.00 | 0.00 | 71 | 1013.3 |
| 20260905175935 | 92 | 253 | 2.6 | 5.2 | 0.00 | 0.00 | 0.00 | 71 | 1013.3 |
| 20260905175405 | 91 | 241 | 1.7 | 6.1 | 0.00 | 0.00 | 0.00 | 72 | 1013.4 |
| 20260905174305 | 90 | 251 | 1.7 | 3.5 | 0.00 | 0.00 | 0.00 | 72 | 1013.5 |
| 20260905173805 | 90 | 253 | 1.7 | 3.5 | 0.00 | 0.00 | 0.00 | 71 | 1013.6 |
| 20260905173235 | 91 | 267 | 0.9 | 3.5 | 0.00 | 0.00 | 0.00 | 72 | 1013.7 |
| 20260905172705 | 91 | 269 | 0.9 | 3.5 | 0.00 | 0.00 | 0.00 | 71 | 1013.9 |
| 20260905171635 | 91 | 238 | 1.7 | 4.3 | 0.00 | 0.00 | 0.00 | 71 | 1013.9 |
| 20260905170635 | 91 | 325 | 0.9 | 2.6 | 0.00 | 0.00 | 0.00 | 71 | 1014.2 |
| 20260905170135 | 92 | 324 | 0.9 | 2.6 | 0.00 | 0.00 | 0.00 | 71 | 1014.4 |
| 20260905165105 | 92 | 303 | 0.9 | 2.6 | 0.00 | 0.00 | 0.00 | 73 | 1014.4 |
| 20260905165001 | 82 | 234 | 1.7 | 4.3 | 0.00 | 0.00 | 0.00 | 93 | 1015.3 |
| 20260905164957 | 82 | 227 | 1.7 | 4.3 | 0.00 | 0.00 | 0.00 | 93 | 1015.3 |
| 20260905164605 | 91 | 266 | 0.9 | 3.5 | 0.00 | 0.00 | 0.00 | 72 | 1014.6 |
| 20260905164035 | 91 | 240 | 0.9 | 3.5 | 0.00 | 0.00 | 0.00 | 74 | 1014.7 |
| 20260905163505 | 90 | 240 | 1.7 | 3.5 | 0.00 | 0.00 | 0.00 | 74 | 1014.7 |
| 20260905163005 | 89 | 251 | 1.7 | 4.3 | 0.00 | 0.00 | 0.00 | 75 | 1014.8 |
| 20260905162507 | 88 | 257 | 1.7 | 4.3 | 0.00 | 0.00 | 0.00 | 78 | 1014.9 |
| 20260905161935 | 88 | 259 | 1.7 | 3.5 | 0.00 | 0.00 | 0.00 | 77 | 1015.0 |
| 20260905161435 | 88 | 262 | 0.9 | 4.3 | 0.00 | 0.00 | 0.00 | 78 | 1014.9 |
| 20260905161305 | 88 | 261 | 1.7 | 4.3 | 0.00 | 0.00 | 0.00 | 78 | 1014.8 |
| 20260905160935 | 88 | 261 | 1.7 | 4.3 | 0.00 | 0.00 | 0.00 | 78 | 1014.8 |
| 20260905160750 | 88 | 262 | 0.9 | 3.5 | 0.00 | 0.00 | 0.00 | 79 | 1014.9 |
| 20260905160435 | 88 | 262 | 0.9 | 3.5 | 0.00 | 0.00 | 0.00 | 79 | 1014.9 |
| 20260905155935 | 88 | 241 | 0.9 | 4.3 | 0.00 | 0.00 | 0.00 | 80 | 1015.0 |
| 20260905155405 | 88 | 240 | 1.7 | 4.3 | 0.00 | 0.00 | 0.00 | 78 | 1015.0 |
| 20260905155158 | 88 | 246 | 1.7 | 3.5 | 0.00 | 0.00 | 0.00 | 78 | 1015.0 |
| 20260905154905 | 88 | 246 | 1.7 | 3.5 | 0.00 | 0.00 | 0.00 | 78 | 1015.0 |
| 20260905153305 | 87 | 245 | 0.9 | 2.6 | 0.00 | 0.00 | 0.00 | 80 | 1015.2 |
| 20260905152235 | 87 | 267 | 0.9 | 2.6 | 0.00 | 0.00 | 0.00 | 83 | 1015.3 |
| 20260905152012 | 87 | 273 | 0.9 | 2.6 | 0.00 | 0.00 | 0.00 | 80 | 1015.3 |
| 20260905151735 | 87 | 273 | 0.9 | 2.6 | 0.00 | 0.00 | 0.00 | 80 | 1015.3 |
| 20260905150635 | 88 | 273 | 1.7 | 5.2 | 0.00 | 0.00 | 0.00 | 81 | 1015.3 |
| 20260905145535 | 88 | 239 | 1.7 | 7.0 | 0.00 | 0.00 | 0.00 | 81 | 1015.1 |
| 20260905145005 | 87 | 211 | 1.7 | 4.3 | 0.00 | 0.00 | 0.00 | 82 | 1015.3 |
| 20260905144707 | 87 | 251 | 1.7 | 4.3 | 0.00 | 0.00 | 0.00 | 85 | 1015.2 |
| 20260905144506 | 87 | 251 | 1.7 | 4.3 | 0.00 | 0.00 | 0.00 | 85 | 1015.2 |
| 20260905143935 | 87 | 236 | 1.7 | 7.0 | 0.00 | 0.00 | 0.00 | 84 | 1015.2 |
| 20260905143405 | 86 | 228 | 2.6 | 7.0 | 0.00 | 0.00 | 0.00 | 83 | 1015.2 |
| 20260905142905 | 86 | 244 | 1.7 | 6.1 | 0.00 | 0.00 | 0.00 | 84 | 1015.1 |
| 20260905141305 | 85 | 256 | 1.7 | 4.3 | 0.00 | 0.00 | 0.00 | 87 | 1015.3 |
| 20260905140735 | 85 | 242 | 0.9 | 4.3 | 0.00 | 0.00 | 0.00 | 87 | 1015.3 |
| 20260905135918 | 84 | 243 | 1.7 | 3.5 | 0.00 | 0.00 | 0.00 | 88 | 1015.3 |
| 20260905135706 | 84 | 243 | 1.7 | 3.5 | 0.00 | 0.00 | 0.00 | 88 | 1015.3 |
| 20260905135329 | 84 | 228 | 1.7 | 3.5 | 0.00 | 0.00 | 0.00 | 89 | 1015.4 |
| 20260905135135 | 84 | 228 | 1.7 | 3.5 | 0.00 | 0.00 | 0.00 | 89 | 1015.4 |
| 20260905134404 | 83 | 247 | 1.7 | 4.3 | 0.00 | 0.00 | 0.00 | 90 | 1015.3 |
| 20260905134105 | 83 | 247 | 1.7 | 4.3 | 0.00 | 0.00 | 0.00 | 90 | 1015.3 |
| 20260905133819 | 83 | 233 | 0.9 | 2.6 | 0.00 | 0.00 | 0.00 | 92 | 1015.2 |
| 20260905133535 | 83 | 233 | 0.9 | 2.6 | 0.00 | 0.00 | 0.00 | 92 | 1015.2 |
| 20260905133005 | 82 | 235 | 0.9 | 3.5 | 0.00 | 0.00 | 0.00 | 92 | 1015.3 |
| 20260905132755 | 82 | 234 | 1.7 | 4.3 | 0.00 | 0.00 | 0.00 | 93 | 1015.3 |
| 20260905132435 | 82 | 234 | 1.7 | 4.3 | 0.00 | 0.00 | 0.00 | 93 | 1015.3 |
| 20260905131905 | 82 | 227 | 1.7 | 4.3 | 0.00 | 0.00 | 0.00 | 93 | 1015.3 |
| 20260905130717 | 80 | 241 | 2.6 | 6.1 | 0.00 | 0.00 | 0.00 | 96 | 1015.2 |
| 20260905130713 | 79 | 239 | 1.7 | 5.2 | 0.00 | 0.00 | 0.00 | 96 | 1015.1 |
| 20260905130711 | 86 | 100 | 1.7 | 3.5 | 0.00 | 0.14 | 0.00 | 85 | 1014.7 |
| 20260905130708 | 86 | 85 | 1.7 | 5.2 | 0.00 | 0.16 | 0.00 | 83 | 1014.5 |
| 20260905125805 | 81 | 249 | 1.7 | 4.3 | 0.00 | 0.00 | 0.00 | 95 | 1015.2 |
| 20260905125514 | 80 | 245 | 1.7 | 3.5 | 0.00 | 0.00 | 0.00 | 95 | 1015.2 |
| 20260905125306 | 80 | 245 | 1.7 | 3.5 | 0.00 | 0.00 | 0.00 | 95 | 1015.2 |
| 20260905125036 | 80 | 244 | 2.6 | 6.1 | 0.00 | 0.00 | 0.00 | 95 | 1015.2 |
| 20260905124805 | 80 | 244 | 2.6 | 6.1 | 0.00 | 0.00 | 0.00 | 95 | 1015.2 |
| 20260905124404 | 80 | 241 | 2.6 | 6.1 | 0.00 | 0.00 | 0.00 | 96 | 1015.2 |
| 20260905124235 | 80 | 241 | 2.6 | 6.1 | 0.00 | 0.00 | 0.00 | 96 | 1015.2 |
| 20260905123844 | 79 | 239 | 1.7 | 5.2 | 0.00 | 0.00 | 0.00 | 96 | 1015.1 |
| 20260905123706 | 79 | 239 | 1.7 | 5.2 | 0.00 | 0.00 | 0.00 | 96 | 1015.1 |
| 20260905123650 | 77 | 177 | 0.0 | 1.7 | 0.00 | 0.24 | 0.00 | 100 | 1014.6 |
| 20260905123419 | 79 | 238 | 0.9 | 4.3 | 0.00 | 0.00 | 0.00 | 98 | 1015.2 |
| 20260905123135 | 79 | 238 | 0.9 | 4.3 | 0.00 | 0.00 | 0.00 | 98 | 1015.2 |
| 20260905122853 | 79 | 235 | 0.9 | 2.6 | 0.00 | 0.00 | 0.00 | 98 | 1015.1 |
| 20260905122605 | 79 | 235 | 0.9 | 2.6 | 0.00 | 0.00 | 0.00 | 98 | 1015.1 |
| 20260905122105 | 78 | 229 | 0.9 | 2.6 | 0.00 | 0.00 | 0.00 | 98 | 1015.1 |
| 20260905121830 | 78 | 230 | 0.9 | 1.7 | 0.00 | 0.00 | 0.00 | 98 | 1015.1 |
| 20260905121605 | 78 | 230 | 0.9 | 1.7 | 0.00 | 0.00 | 0.00 | 98 | 1015.1 |
| 20260905120535 | 78 | 241 | 1.7 | 2.6 | 0.00 | 0.00 | 0.00 | 99 | 1014.9 |
| 20260905120035 | 78 | 240 | 1.7 | 3.5 | 0.00 | 0.00 | 0.00 | 99 | 1015.0 |
| 20260905115201 | 77 | 234 | 0.9 | 3.5 | 0.00 | 0.00 | 0.00 | 99 | 1014.8 |
| 20260905115006 | 77 | 234 | 0.9 | 3.5 | 0.00 | 0.00 | 0.00 | 99 | 1014.8 |
| 20260905114705 | 77 | 233 | 0.9 | 2.6 | 0.00 | 0.00 | 0.00 | 99 | 1014.7 |
| 20260905114505 | 77 | 233 | 0.9 | 2.6 | 0.00 | 0.00 | 0.00 | 99 | 1014.7 |
| 20260905114118 | 77 | 244 | 0.9 | 2.6 | 0.00 | 0.00 | 0.00 | 99 | 1014.7 |
| 20260905113935 | 77 | 244 | 0.9 | 2.6 | 0.00 | 0.00 | 0.00 | 99 | 1014.7 |
| 20260905113612 | 77 | 244 | 0.9 | 2.6 | 0.00 | 0.00 | 0.00 | 99 | 1014.7 |
| 20260905113405 | 77 | 244 | 0.9 | 2.6 | 0.00 | 0.00 | 0.00 | 99 | 1014.7 |
| 20260905112905 | 77 | 240 | 1.7 | 3.5 | 0.00 | 0.00 | 0.00 | 99 | 1014.6 |
| 20260905112406 | 77 | 239 | 1.7 | 4.3 | 0.00 | 0.00 | 0.00 | 99 | 1014.6 |
| 20260905111004 | 77 | 238 | 1.7 | 3.5 | 0.00 | 0.00 | 0.00 | 99 | 1014.6 |
| 20260905110805 | 77 | 238 | 1.7 | 3.5 | 0.00 | 0.00 | 0.00 | 99 | 1014.6 |
| 20260905110526 | 77 | 241 | 1.7 | 3.5 | 0.00 | 0.00 | 0.00 | 100 | 1014.7 |
| 20260905110306 | 77 | 241 | 1.7 | 3.5 | 0.00 | 0.00 | 0.00 | 100 | 1014.7 |
| 20260905105929 | 77 | 236 | 0.9 | 2.6 | 0.00 | 0.00 | 0.00 | 99 | 1014.6 |
| 20260905105735 | 77 | 236 | 0.9 | 2.6 | 0.00 | 0.00 | 0.00 | 99 | 1014.6 |
| 20260905105500 | 77 | 237 | 0.9 | 1.7 | 0.00 | 0.00 | 0.00 | 99 | 1014.5 |
| 20260905105236 | 77 | 237 | 0.9 | 1.7 | 0.00 | 0.00 | 0.00 | 99 | 1014.5 |
| 20260905104919 | 77 | 249 | 0.9 | 1.7 | 0.00 | 0.00 | 0.00 | 99 | 1014.5 |
| 20260905104735 | 77 | 249 | 0.9 | 1.7 | 0.00 | 0.00 | 0.00 | 99 | 1014.5 |
| 20260905104205 | 77 | 248 | 0.0 | 1.7 | 0.00 | 0.00 | 0.00 | 99 | 1014.6 |
| 20260905103412 | 77 | 238 | 0.9 | 1.7 | 0.00 | 0.00 | 0.00 | 99 | 1014.5 |
| 20260905103136 | 77 | 238 | 0.9 | 1.7 | 0.00 | 0.00 | 0.00 | 99 | 1014.5 |
| 20260905102635 | 77 | 238 | 0.9 | 1.7 | 0.00 | 0.00 | 0.00 | 99 | 1014.5 |
| 20260905102439 | 77 | 236 | 0.9 | 1.7 | 0.00 | 0.00 | 0.00 | 99 | 1014.3 |
| 20260905102135 | 77 | 236 | 0.9 | 1.7 | 0.00 | 0.00 | 0.00 | 99 | 1014.3 |
| 20260905101804 | 77 | 234 | 0.9 | 1.7 | 0.00 | 0.00 | 0.00 | 98 | 1014.4 |
| 20260905101636 | 77 | 234 | 0.9 | 1.7 | 0.00 | 0.00 | 0.00 | 98 | 1014.4 |
| 20260905101412 | 77 | 234 | 0.9 | 1.7 | 0.00 | 0.00 | 0.00 | 98 | 1014.4 |
| 20260905101135 | 77 | 234 | 0.9 | 1.7 | 0.00 | 0.00 | 0.00 | 98 | 1014.4 |
| 20260905100635 | 77 | 234 | 0.9 | 1.7 | 0.00 | 0.00 | 0.00 | 98 | 1014.3 |
| 20260905100340 | 77 | 232 | 0.0 | 1.7 | 0.00 | 0.00 | 0.00 | 98 | 1014.4 |
| 20260905100105 | 77 | 232 | 0.0 | 1.7 | 0.00 | 0.00 | 0.00 | 98 | 1014.4 |
| 20260905095035 | 77 | 232 | 0.0 | 1.7 | 0.00 | 0.00 | 0.00 | 98 | 1014.3 |
| 20260905093936 | 77 | 243 | 0.9 | 2.6 | 0.00 | 0.00 | 0.00 | 98 | 1014.3 |
| 20260905093648 | 77 | 247 | 0.9 | 1.7 | 0.00 | 0.00 | 0.00 | 98 | 1014.3 |
| 20260905093435 | 77 | 247 | 0.9 | 1.7 | 0.00 | 0.00 | 0.00 | 98 | 1014.3 |
| 20260905092906 | 77 | 247 | 0.9 | 1.7 | 0.00 | 0.00 | 0.00 | 98 | 1014.3 |
| 20260905092405 | 77 | 238 | 0.9 | 1.7 | 0.00 | 0.00 | 0.00 | 99 | 1014.2 |
| 20260905091538 | 77 | 200 | 0.0 | 0.9 | 0.00 | 0.00 | 0.00 | 99 | 1014.2 |
| 20260905091335 | 77 | 200 | 0.0 | 0.9 | 0.00 | 0.00 | 0.00 | 99 | 1014.2 |
| 20260905090836 | 77 | 195 | 0.0 | 0.9 | 0.00 | 0.00 | 0.00 | 99 | 1014.1 |
| 20260905090533 | 77 | 195 | 0.0 | 0.9 | 0.00 | 0.00 | 0.00 | 99 | 1014.0 |
| 20260905090305 | 77 | 195 | 0.0 | 0.9 | 0.00 | 0.00 | 0.00 | 99 | 1014.0 |
| 20260905085735 | 77 | 230 | 0.0 | 1.7 | 0.00 | 0.00 | 0.00 | 99 | 1014.0 |
| 20260905084205 | 77 | 191 | 0.0 | 0.9 | 0.00 | 0.00 | 0.00 | 98 | 1014.0 |
| 20260905083637 | 77 | 0 | 0.0 | 0.0 | 0.00 | 0.00 | 0.00 | 98 | 1014.1 |
| 20260905083105 | 77 | 190 | 0.0 | 0.9 | 0.00 | 0.00 | 0.00 | 98 | 1014.2 |
| 20260905082605 | 77 | 188 | 0.0 | 0.9 | 0.00 | 0.00 | 0.00 | 98 | 1014.3 |
| 20260905082106 | 77 | 187 | 0.0 | 0.9 | 0.00 | 0.00 | 0.00 | 98 | 1014.3 |
| 20260905081715 | 77 | 0 | 0.0 | 0.0 | 0.00 | 0.00 | 0.00 | 98 | 1014.3 |
| 20260905081535 | 77 | 0 | 0.0 | 0.0 | 0.00 | 0.00 | 0.00 | 98 | 1014.3 |
| 20260905081353 | 77 | 187 | 0.0 | 0.9 | 0.00 | 0.00 | 0.00 | 98 | 1014.2 |
| 20260905081035 | 77 | 187 | 0.0 | 0.9 | 0.00 | 0.00 | 0.00 | 98 | 1014.2 |
| 20260905080705 | 77 | 190 | 0.0 | 0.9 | 0.00 | 0.00 | 0.00 | 98 | 1014.2 |
| 20260905080505 | 77 | 190 | 0.0 | 0.9 | 0.00 | 0.00 | 0.00 | 98 | 1014.2 |
| 20260905075109 | 77 | 166 | 0.0 | 0.9 | 0.00 | 0.00 | 0.00 | 98 | 1014.1 |
| 20260905074905 | 77 | 166 | 0.0 | 0.9 | 0.00 | 0.00 | 0.00 | 98 | 1014.1 |
| 20260905074405 | 77 | 173 | 0.0 | 0.9 | 0.00 | 0.00 | 0.00 | 98 | 1014.2 |
| 20260905073022 | 76 | 107 | 0.0 | 1.7 | 0.00 | 0.00 | 0.00 | 97 | 1014.2 |
| 20260905072836 | 76 | 107 | 0.0 | 1.7 | 0.00 | 0.00 | 0.00 | 97 | 1014.2 |
| 20260905071101 | 77 | 217 | 0.0 | 0.9 | 0.00 | 0.00 | 0.00 | 96 | 1014.2 |
| 20260905070835 | 77 | 217 | 0.0 | 0.9 | 0.00 | 0.00 | 0.00 | 96 | 1014.2 |
| 20260905065528 | 77 | 235 | 0.0 | 0.9 | 0.00 | 0.00 | 0.00 | 96 | 1014.4 |
| 20260905065306 | 77 | 235 | 0.0 | 0.9 | 0.00 | 0.00 | 0.00 | 96 | 1014.4 |
| 20260905064502 | 77 | 241 | 0.0 | 0.9 | 0.00 | 0.00 | 0.00 | 96 | 1014.4 |
| 20260905064305 | 77 | 241 | 0.0 | 0.9 | 0.00 | 0.00 | 0.00 | 96 | 1014.4 |
| 20260905063735 | 77 | 0 | 0.0 | 0.0 | 0.00 | 0.00 | 0.00 | 95 | 1014.5 |
| 20260905063444 | 77 | 241 | 0.0 | 0.9 | 0.00 | 0.00 | 0.00 | 95 | 1014.5 |
| 20260905063235 | 77 | 241 | 0.0 | 0.9 | 0.00 | 0.00 | 0.00 | 95 | 1014.5 |
| 20260905062706 | 77 | 241 | 0.0 | 0.9 | 0.00 | 0.00 | 0.00 | 95 | 1014.4 |
| 20260905062135 | 77 | 241 | 0.0 | 0.9 | 0.00 | 0.00 | 0.00 | 95 | 1014.5 |
| 20260905061105 | 78 | 241 | 0.0 | 0.9 | 0.00 | 0.00 | 0.00 | 95 | 1014.5 |
| 20260905060705 | 78 | 241 | 0.0 | 0.9 | 0.00 | 0.00 | 0.00 | 95 | 1014.5 |
| 20260905060535 | 78 | 241 | 0.0 | 0.9 | 0.00 | 0.00 | 0.00 | 95 | 1014.5 |
| 20260905060159 | 78 | 0 | 0.0 | 0.9 | 0.00 | 0.00 | 0.00 | 95 | 1014.6 |
| 20260905060005 | 78 | 0 | 0.0 | 0.9 | 0.00 | 0.00 | 0.00 | 95 | 1014.6 |
| 20260905055614 | 78 | 0 | 0.0 | 0.0 | 0.00 | 0.00 | 0.00 | 95 | 1014.7 |
| 20260905055435 | 78 | 0 | 0.0 | 0.0 | 0.00 | 0.00 | 0.00 | 95 | 1014.7 |
| 20260905054905 | 78 | 265 | 0.0 | 1.7 | 0.00 | 0.00 | 0.00 | 95 | 1014.8 |
| 20260905053805 | 78 | 189 | 0.0 | 1.7 | 0.00 | 0.00 | 0.00 | 95 | 1014.8 |
| 20260905053509 | 78 | 175 | 0.0 | 1.7 | 0.00 | 0.00 | 0.00 | 95 | 1014.9 |
| 20260905053305 | 78 | 175 | 0.0 | 1.7 | 0.00 | 0.00 | 0.00 | 95 | 1014.9 |
| 20260905052458 | 79 | 183 | 0.0 | 0.9 | 0.00 | 0.00 | 0.00 | 95 | 1015.1 |
| 20260905052235 | 79 | 183 | 0.0 | 0.9 | 0.00 | 0.00 | 0.00 | 95 | 1015.1 |
| 20260905051901 | 79 | 183 | 0.0 | 0.9 | 0.00 | 0.00 | 0.00 | 95 | 1015.1 |
| 20260905051735 | 79 | 183 | 0.0 | 0.9 | 0.00 | 0.00 | 0.00 | 95 | 1015.1 |
| 20260905051205 | 79 | 180 | 0.0 | 0.9 | 0.00 | 0.00 | 0.00 | 95 | 1015.2 |
| 20260905050351 | 79 | 176 | 0.0 | 1.7 | 0.00 | 0.00 | 0.00 | 95 | 1015.2 |
| 20260905050135 | 79 | 176 | 0.0 | 1.7 | 0.00 | 0.00 | 0.00 | 95 | 1015.2 |
| 20260905045939 | 80 | 180 | 0.0 | 0.9 | 0.00 | 0.00 | 0.00 | 95 | 1015.3 |
| 20260905045635 | 80 | 180 | 0.0 | 0.9 | 0.00 | 0.00 | 0.00 | 95 | 1015.3 |
| 20260905045105 | 80 | 188 | 0.0 | 0.9 | 0.00 | 0.00 | 0.00 | 95 | 1015.3 |
| 20260905044605 | 80 | 192 | 0.0 | 0.9 | 0.00 | 0.00 | 0.00 | 95 | 1015.4 |
| 20260905044035 | 80 | 225 | 0.0 | 1.7 | 0.00 | 0.00 | 0.00 | 94 | 1015.4 |
| 20260905043653 | 80 | 216 | 0.9 | 1.7 | 0.00 | 0.00 | 0.00 | 94 | 1015.4 |
| 20260905043505 | 80 | 216 | 0.9 | 1.7 | 0.00 | 0.00 | 0.00 | 94 | 1015.4 |
| 20260905042935 | 80 | 214 | 0.0 | 1.7 | 0.00 | 0.00 | 0.00 | 95 | 1015.3 |
| 20260905042651 | 80 | 214 | 0.0 | 0.9 | 0.00 | 0.00 | 0.00 | 94 | 1015.3 |
| 20260905042405 | 80 | 214 | 0.0 | 0.9 | 0.00 | 0.00 | 0.00 | 94 | 1015.3 |
| 20260905042112 | 80 | 208 | 0.9 | 1.7 | 0.00 | 0.00 | 0.00 | 94 | 1015.3 |
| 20260905041905 | 80 | 208 | 0.9 | 1.7 | 0.00 | 0.00 | 0.00 | 94 | 1015.3 |
| 20260905041654 | 80 | 207 | 0.9 | 1.7 | 0.00 | 0.00 | 0.00 | 93 | 1015.4 |
| 20260905041405 | 80 | 207 | 0.9 | 1.7 | 0.00 | 0.00 | 0.00 | 93 | 1015.4 |
| 20260905040905 | 80 | 182 | 0.9 | 1.7 | 0.00 | 0.00 | 0.00 | 93 | 1015.2 |
| 20260905040405 | 80 | 170 | 0.9 | 1.7 | 0.00 | 0.00 | 0.00 | 93 | 1015.3 |
| 20260905040127 | 80 | 175 | 0.0 | 1.7 | 0.00 | 0.00 | 0.00 | 94 | 1015.3 |
| 20260905035835 | 80 | 175 | 0.0 | 1.7 | 0.00 | 0.00 | 0.00 | 94 | 1015.3 |
| 20260905035648 | 80 | 182 | 0.0 | 1.7 | 0.00 | 0.00 | 0.00 | 95 | 1015.3 |
| 20260905035335 | 80 | 182 | 0.0 | 1.7 | 0.00 | 0.00 | 0.00 | 95 | 1015.3 |
| 20260905034835 | 80 | 182 | 0.0 | 0.9 | 0.00 | 0.00 | 0.00 | 95 | 1015.3 |
| 20260905034335 | 80 | 0 | 0.0 | 0.0 | 0.00 | 0.00 | 0.00 | 95 | 1015.5 |
| 20260905034134 | 80 | 0 | 0.0 | 0.0 | 0.00 | 0.00 | 0.00 | 95 | 1015.5 |
| 20260905033807 | 80 | 0 | 0.0 | 0.0 | 0.00 | 0.00 | 0.00 | 95 | 1015.5 |
| 20260905032735 | 80 | 115 | 0.0 | 1.7 | 0.00 | 0.00 | 0.00 | 95 | 1015.7 |
| 20260905032235 | 80 | 115 | 0.0 | 1.7 | 0.00 | 0.00 | 0.00 | 95 | 1015.9 |
| 20260905031735 | 80 | 211 | 0.0 | 0.9 | 0.00 | 0.00 | 0.00 | 95 | 1015.9 |
| 20260905031235 | 80 | 211 | 0.0 | 0.9 | 0.00 | 0.00 | 0.00 | 95 | 1015.9 |
| 20260905030705 | 80 | 211 | 0.0 | 0.9 | 0.00 | 0.00 | 0.00 | 95 | 1015.8 |
| 20260905025605 | 80 | 0 | 0.0 | 0.0 | 0.00 | 0.00 | 0.00 | 94 | 1015.9 |
| 20260905025341 | 80 | 0 | 0.0 | 0.0 | 0.00 | 0.00 | 0.00 | 94 | 1015.9 |
| 20260905025105 | 80 | 0 | 0.0 | 0.0 | 0.00 | 0.00 | 0.00 | 94 | 1015.9 |
| 20260905024535 | 80 | 179 | 0.0 | 0.9 | 0.00 | 0.00 | 0.00 | 94 | 1015.7 |
| 20260905023738 | 80 | 113 | 0.9 | 2.6 | 0.00 | 0.00 | 0.00 | 95 | 1015.7 |
| 20260905023505 | 80 | 113 | 0.9 | 2.6 | 0.00 | 0.00 | 0.00 | 95 | 1015.7 |
| 20260905022935 | 80 | 102 | 1.7 | 5.2 | 0.00 | 0.00 | 0.00 | 95 | 1015.7 |
| 20260905022405 | 80 | 94 | 0.9 | 5.2 | 0.00 | 0.00 | 0.00 | 94 | 1015.5 |
| 20260905021904 | 80 | 83 | 0.0 | 0.9 | 0.00 | 0.00 | 0.00 | 94 | 1015.6 |
| 20260905020905 | 80 | 77 | 0.9 | 3.5 | 0.00 | 0.00 | 0.00 | 95 | 1015.6 |
| 20260905020104 | 80 | 97 | 0.9 | 2.6 | 0.00 | 0.00 | 0.00 | 94 | 1015.6 |
| 20260905015836 | 80 | 97 | 0.9 | 2.6 | 0.00 | 0.00 | 0.00 | 94 | 1015.6 |
| 20260905014305 | 80 | 261 | 0.0 | 0.9 | 0.00 | 0.00 | 0.00 | 94 | 1015.5 |
| 20260905013736 | 80 | 198 | 0.0 | 1.7 | 0.00 | 0.00 | 0.00 | 94 | 1015.3 |
| 20260905012635 | 80 | 160 | 0.9 | 1.7 | 0.00 | 0.00 | 0.00 | 93 | 1015.2 |
| 20260905012105 | 80 | 182 | 0.9 | 4.3 | 0.00 | 0.00 | 0.00 | 93 | 1015.3 |
| 20260905011742 | 80 | 184 | 0.9 | 4.3 | 0.00 | 0.00 | 0.00 | 93 | 1015.3 |
| 20260905011535 | 80 | 184 | 0.9 | 4.3 | 0.00 | 0.00 | 0.00 | 93 | 1015.3 |
| 20260905011035 | 80 | 187 | 1.7 | 4.3 | 0.00 | 0.00 | 0.00 | 92 | 1015.3 |
| 20260905010713 | 80 | 169 | 1.7 | 4.3 | 0.00 | 0.00 | 0.00 | 91 | 1015.3 |
| 20260905010505 | 80 | 169 | 1.7 | 4.3 | 0.00 | 0.00 | 0.00 | 91 | 1015.3 |
| 20260905010352 | 81 | 170 | 0.9 | 5.2 | 0.00 | 0.00 | 0.00 | 89 | 1015.3 |
| 20260905010005 | 81 | 170 | 0.9 | 5.2 | 0.00 | 0.00 | 0.00 | 89 | 1015.3 |
| 20260905005650 | 81 | 173 | 0.9 | 5.2 | 0.00 | 0.00 | 0.00 | 88 | 1015.0 |
| 20260905005505 | 81 | 173 | 0.9 | 5.2 | 0.00 | 0.00 | 0.00 | 88 | 1015.0 |
| 20260905004935 | 81 | 161 | 2.6 | 7.0 | 0.00 | 0.00 | 0.00 | 88 | 1014.9 |
| 20260905004405 | 82 | 171 | 3.5 | 9.6 | 0.00 | 0.00 | 0.00 | 88 | 1015.2 |
| 20260905003905 | 82 | 164 | 3.5 | 9.6 | 0.00 | 0.00 | 0.00 | 87 | 1015.5 |
| 20260905003405 | 83 | 115 | 3.5 | 9.6 | 0.00 | 0.00 | 0.00 | 89 | 1015.5 |
| 20260905003158 | 83 | 97 | 2.6 | 8.7 | 0.00 | 0.00 | 0.00 | 90 | 1015.7 |
| 20260905002905 | 83 | 97 | 2.6 | 8.7 | 0.00 | 0.00 | 0.00 | 90 | 1015.7 |
| 20260905001305 | 83 | 42 | 0.9 | 3.5 | 0.00 | 0.01 | 0.00 | 89 | 1015.4 |
| 20260905000735 | 83 | 24 | 1.7 | 3.5 | 0.00 | 0.01 | 0.00 | 89 | 1015.0 |
| 20260904234851 | 85 | 6 | 2.6 | 5.2 | 0.00 | 0.02 | 0.00 | 86 | 1015.2 |
| 20260904234705 | 85 | 6 | 2.6 | 5.2 | 0.00 | 0.02 | 0.00 | 86 | 1015.2 |
| 20260904234135 | 85 | 11 | 1.7 | 5.2 | 0.00 | 0.02 | 0.00 | 86 | 1015.0 |
| 20260904233635 | 85 | 40 | 0.9 | 4.3 | 0.00 | 0.03 | 0.00 | 86 | 1014.8 |
| 20260904233355 | 85 | 101 | 0.9 | 2.6 | 0.00 | 0.04 | 0.00 | 85 | 1014.9 |
| 20260904233105 | 85 | 101 | 0.9 | 2.6 | 0.00 | 0.04 | 0.00 | 85 | 1014.9 |
| 20260904232808 | 85 | 110 | 0.9 | 2.6 | 0.00 | 0.06 | 0.00 | 86 | 1014.9 |
| 20260904232605 | 85 | 110 | 0.9 | 2.6 | 0.00 | 0.06 | 0.00 | 86 | 1014.9 |
| 20260904232310 | 85 | 106 | 0.9 | 2.6 | 0.00 | 0.09 | 0.00 | 86 | 1014.9 |
| 20260904232105 | 85 | 106 | 0.9 | 2.6 | 0.00 | 0.09 | 0.00 | 86 | 1014.9 |
| 20260904231605 | 86 | 102 | 1.7 | 3.5 | 0.00 | 0.11 | 0.00 | 86 | 1014.8 |
| 20260904231035 | 86 | 100 | 1.7 | 3.5 | 0.00 | 0.14 | 0.00 | 85 | 1014.7 |
| 20260904230424 | 86 | 85 | 1.7 | 5.2 | 0.00 | 0.16 | 0.00 | 83 | 1014.5 |
| 20260904230035 | 86 | 85 | 1.7 | 5.2 | 0.00 | 0.16 | 0.00 | 83 | 1014.5 |
| 20260904225756 | 87 | 95 | 1.7 | 5.2 | 0.00 | 0.17 | 0.00 | 83 | 1014.5 |
| 20260904225505 | 87 | 95 | 1.7 | 5.2 | 0.00 | 0.17 | 0.00 | 83 | 1014.5 |
| 20260904225005 | 88 | 95 | 0.9 | 2.6 | 0.00 | 0.17 | 0.00 | 81 | 1014.5 |
| 20260904224505 | 88 | 78 | 0.0 | 2.6 | 0.00 | 0.17 | 0.00 | 81 | 1014.4 |
| 20260904223935 | 88 | 0 | 0.0 | 0.0 | 0.00 | 0.17 | 0.00 | 79 | 1014.3 |
| 20260904223434 | 88 | 198 | 0.0 | 0.9 | 0.00 | 0.17 | 0.00 | 80 | 1014.5 |
| 20260904223302 | 88 | 199 | 0.0 | 0.9 | 0.00 | 0.17 | 0.00 | 79 | 1014.6 |
| 20260904222905 | 88 | 199 | 0.0 | 0.9 | 0.00 | 0.17 | 0.00 | 79 | 1014.6 |